createdAt,value
2017-10-27T00:00:38.847Z,96.70
2017-10-27T00:01:38.839Z,96.51
2017-10-27T00:02:38.783Z,96.70
2017-10-27T00:03:38.759Z,96.51
2017-10-27T00:04:38.745Z,96.80
2017-10-27T00:05:38.728Z,97.18
2017-10-27T00:06:38.751Z,96.70
2017-10-27T00:07:38.687Z,96.89
2017-10-27T00:08:38.675Z,96.61
2017-10-27T00:09:38.658Z,96.70
2017-10-27T00:10:38.637Z,96.51
2017-10-27T00:11:38.668Z,96.70
2017-10-27T00:12:38.608Z,96.80
2017-10-27T00:13:38.626Z,97.27
2017-10-27T00:14:38.578Z,96.51
2017-10-27T00:15:38.560Z,96.61
2017-10-27T00:16:38.545Z,96.70
2017-10-27T00:17:38.554Z,96.32
2017-10-27T00:18:38.511Z,97.08
2017-10-27T00:19:38.490Z,96.61
2017-10-27T00:20:38.468Z,96.61
2017-10-27T00:21:38.500Z,96.80
2017-10-27T00:22:38.438Z,96.70
2017-10-27T00:23:38.416Z,96.89
2017-10-27T00:24:38.397Z,96.80
2017-10-27T00:25:38.383Z,97.27
2017-10-27T00:26:38.416Z,96.51
2017-10-27T00:27:38.353Z,96.51
2017-10-27T00:28:38.350Z,96.08
2017-10-27T00:29:38.317Z,96.98
2017-10-27T00:30:38.297Z,96.75
2017-10-27T00:31:38.314Z,96.94
2017-10-27T00:32:38.312Z,97.56
2017-10-27T00:33:38.253Z,97.03
2017-10-27T00:34:38.235Z,96.66
2017-10-27T00:35:38.211Z,97.13
2017-10-27T00:36:38.204Z,96.66
2017-10-27T00:37:38.214Z,97.61
2017-10-27T00:38:38.160Z,97.42
2017-10-27T00:39:38.183Z,95.98
2017-10-27T00:40:38.132Z,97.03
2017-10-27T00:41:38.106Z,96.37
2017-10-27T00:42:38.098Z,96.27
2017-10-27T00:43:38.139Z,97.42
2017-10-27T00:44:38.056Z,96.27
2017-10-27T00:45:38.036Z,97.89
2017-10-27T00:46:38.029Z,97.13
2017-10-27T00:47:38.003Z,96.94
2017-10-27T00:48:38.021Z,97.13
2017-10-27T00:49:37.989Z,97.22
2017-10-27T00:50:37.989Z,96.66
2017-10-27T00:51:37.940Z,97.51
2017-10-27T00:52:37.933Z,97.22
2017-10-27T00:53:37.903Z,96.94
2017-10-27T00:54:37.925Z,96.08
2017-10-27T00:55:37.867Z,96.27
2017-10-27T00:56:37.849Z,97.22
2017-10-27T00:57:37.833Z,97.08
2017-10-27T00:58:37.816Z,96.46
2017-10-27T00:59:37.839Z,97.22
2017-10-27T01:00:37.783Z,96.37
2017-10-27T01:01:37.760Z,97.22
2017-10-27T01:02:37.760Z,96.17
2017-10-27T01:03:37.732Z,96.75
2017-10-27T01:04:37.803Z,96.32
2017-10-27T01:05:37.696Z,97.17
2017-10-27T01:06:37.679Z,97.13
2017-10-27T01:07:37.657Z,96.08
2017-10-27T01:08:37.640Z,96.51
2017-10-27T01:09:37.681Z,97.17
2017-10-27T01:10:37.608Z,96.46
2017-10-27T01:11:37.590Z,96.41
2017-10-27T01:12:37.566Z,97.17
2017-10-27T01:13:37.557Z,96.89
2017-10-27T01:14:37.572Z,96.80
2017-10-27T01:15:37.520Z,96.41
2017-10-27T01:16:37.501Z,96.61
2017-10-27T01:17:37.488Z,96.61
2017-10-27T01:18:37.467Z,97.08
2017-10-27T01:19:37.482Z,96.98
2017-10-27T01:20:37.477Z,96.41
2017-10-27T01:21:37.416Z,96.13
2017-10-27T01:22:37.398Z,96.89
2017-10-27T01:23:37.390Z,96.89
2017-10-27T01:24:37.359Z,96.61
2017-10-27T01:25:37.401Z,96.41
2017-10-27T01:26:37.365Z,96.89
2017-10-27T01:27:37.322Z,95.75
2017-10-27T01:28:37.287Z,97.08
2017-10-27T01:29:37.353Z,97.08
2017-10-27T01:30:37.256Z,97.08
2017-10-27T01:31:37.238Z,95.94
2017-10-27T01:32:37.225Z,97.08
2017-10-27T01:33:37.210Z,96.61
2017-10-27T01:34:37.234Z,96.80
2017-10-27T01:35:37.169Z,96.13
2017-10-27T01:36:37.169Z,96.61
2017-10-27T01:37:37.132Z,96.03
2017-10-27T01:38:37.116Z,96.89
2017-10-27T01:39:37.142Z,96.98
2017-10-27T01:40:37.083Z,96.80
2017-10-27T01:41:37.062Z,96.70
2017-10-27T01:42:37.048Z,97.08
2017-10-27T01:43:37.027Z,96.89
2017-10-27T01:44:37.045Z,96.41
2017-10-27T01:45:36.995Z,96.22
2017-10-27T01:46:36.974Z,96.61
2017-10-27T01:47:37.001Z,96.41
2017-10-27T01:48:36.941Z,96.32
2017-10-27T01:49:36.923Z,96.41
2017-10-27T01:50:36.904Z,97.08
2017-10-27T01:51:36.889Z,96.41
2017-10-27T01:52:36.907Z,96.70
2017-10-27T01:53:36.885Z,97.08
2017-10-27T01:54:36.838Z,96.03
2017-10-27T01:55:36.818Z,96.32
2017-10-27T01:56:36.800Z,96.32
2017-10-27T01:57:36.828Z,96.13
2017-10-27T01:58:36.763Z,96.41
2017-10-27T01:59:36.761Z,96.51
2017-10-27T02:00:36.737Z,96.41
2017-10-27T02:01:36.718Z,96.32
2017-10-27T02:02:36.731Z,96.80
2017-10-27T02:03:36.675Z,96.89
2017-10-27T02:04:36.697Z,97.08
2017-10-27T02:05:36.651Z,96.98
2017-10-27T02:06:36.622Z,96.98
2017-10-27T02:07:36.605Z,96.98
2017-10-27T02:08:36.590Z,96.13
2017-10-27T02:09:36.617Z,96.03
2017-10-27T02:10:36.558Z,96.61
2017-10-27T02:11:36.543Z,97.17
2017-10-27T02:12:36.520Z,97.08
2017-10-27T02:13:36.510Z,96.51
2017-10-27T02:14:36.527Z,96.41
2017-10-27T02:15:36.463Z,96.22
2017-10-27T02:16:36.450Z,96.80
2017-10-27T02:17:36.439Z,97.08
2017-10-27T02:18:36.412Z,96.89
2017-10-27T02:19:36.440Z,96.22
2017-10-27T02:20:36.375Z,96.32
2017-10-27T02:21:36.366Z,96.80
2017-10-27T02:22:36.345Z,96.80
2017-10-27T02:23:36.353Z,96.51
2017-10-27T02:24:36.305Z,96.51
2017-10-27T02:25:36.294Z,96.80
2017-10-27T02:26:36.307Z,96.70
2017-10-27T02:27:36.249Z,96.80
2017-10-27T02:28:36.244Z,96.41
2017-10-27T02:29:36.218Z,96.51
2017-10-27T02:30:36.248Z,96.80
2017-10-27T02:31:36.178Z,96.80
2017-10-27T02:32:36.170Z,96.89
2017-10-27T02:33:36.144Z,96.80
2017-10-27T02:34:36.124Z,96.61
2017-10-27T02:35:36.155Z,96.51
2017-10-27T02:36:36.138Z,96.70
2017-10-27T02:37:36.080Z,96.70
2017-10-27T02:38:36.054Z,96.80
2017-10-27T02:39:36.082Z,96.98
2017-10-27T02:40:36.026Z,96.41
2017-10-27T02:41:36.004Z,97.08
2017-10-27T02:42:35.982Z,97.17
2017-10-27T02:43:35.981Z,96.70
2017-10-27T02:44:35.994Z,97.17
2017-10-27T02:45:35.933Z,96.61
2017-10-27T02:46:35.908Z,96.70
2017-10-27T02:47:35.900Z,96.65
2017-10-27T02:48:35.874Z,96.80
2017-10-27T02:49:35.898Z,96.56
2017-10-27T02:50:35.845Z,96.61
2017-10-27T02:51:35.871Z,96.80
2017-10-27T02:52:35.808Z,96.84
2017-10-27T02:53:35.785Z,96.61
2017-10-27T02:54:35.778Z,96.89
2017-10-27T02:55:35.748Z,96.70
2017-10-27T02:56:35.791Z,96.98
2017-10-27T02:57:35.715Z,96.70
2017-10-27T02:58:35.708Z,96.61
2017-10-27T02:59:35.703Z,96.70
2017-10-27T03:00:35.659Z,96.84
2017-10-27T03:01:35.685Z,96.75
2017-10-27T03:02:35.668Z,96.80
2017-10-27T03:03:35.636Z,96.46
2017-10-27T03:04:35.584Z,96.84
2017-10-27T03:05:35.591Z,97.03
2017-10-27T03:06:35.588Z,97.08
2017-10-27T03:07:35.567Z,96.32
2017-10-27T03:08:35.512Z,96.61
2017-10-27T03:09:35.553Z,96.94
2017-10-27T03:10:35.477Z,96.70
2017-10-27T03:11:35.465Z,96.46
2017-10-27T03:12:35.441Z,96.41
2017-10-27T03:13:35.434Z,96.56
2017-10-27T03:14:35.454Z,96.84
2017-10-27T03:15:35.403Z,96.75
2017-10-27T03:16:35.374Z,96.46
2017-10-27T03:17:35.353Z,96.65
2017-10-27T03:18:35.332Z,96.84
2017-10-27T03:19:35.364Z,96.32
2017-10-27T03:20:35.311Z,96.65
2017-10-27T03:21:35.275Z,96.94
2017-10-27T03:22:35.261Z,96.84
2017-10-27T03:23:35.240Z,96.75
2017-10-27T03:24:35.262Z,96.17
2017-10-27T03:25:35.211Z,96.84
2017-10-27T03:26:35.188Z,96.75
2017-10-27T03:27:35.237Z,96.36
2017-10-27T03:28:35.153Z,96.56
2017-10-27T03:29:35.136Z,97.13
2017-10-27T03:30:35.118Z,96.94
2017-10-27T03:31:35.112Z,96.94
2017-10-27T03:32:35.138Z,96.84
2017-10-27T03:33:35.065Z,96.75
2017-10-27T03:34:35.047Z,96.75
2017-10-27T03:35:35.024Z,96.56
2017-10-27T03:36:35.007Z,96.84
2017-10-27T03:37:35.023Z,96.65
2017-10-27T03:38:35.001Z,96.65
2017-10-27T03:39:34.962Z,96.56
2017-10-27T03:40:34.934Z,96.75
2017-10-27T03:41:34.914Z,96.75
2017-10-27T03:42:34.899Z,96.65
2017-10-27T03:43:34.922Z,96.75
2017-10-27T03:44:34.872Z,96.56
2017-10-27T03:45:34.879Z,96.94
2017-10-27T03:46:34.823Z,97.03
2017-10-27T03:47:34.812Z,96.75
2017-10-27T03:48:34.825Z,96.94
2017-10-27T03:49:34.769Z,96.46
2017-10-27T03:50:34.751Z,96.75
2017-10-27T03:51:34.739Z,96.75
2017-10-27T03:52:34.716Z,96.65
2017-10-27T03:53:34.736Z,96.70
2017-10-27T03:54:34.682Z,97.65
2017-10-27T03:55:34.667Z,96.80
2017-10-27T03:56:34.641Z,96.51
2017-10-27T03:57:34.631Z,96.75
2017-10-27T03:58:34.640Z,97.17
2017-10-27T03:59:34.586Z,96.98
2017-10-27T04:00:34.563Z,97.08
2017-10-27T04:01:34.548Z,96.70
2017-10-27T04:02:34.569Z,96.80
2017-10-27T04:03:34.517Z,96.80
2017-10-27T04:04:34.496Z,97.46
2017-10-27T04:05:34.478Z,96.98
2017-10-27T04:06:34.466Z,97.46
2017-10-27T04:07:34.490Z,97.27
2017-10-27T04:08:34.435Z,96.98
2017-10-27T04:09:34.417Z,96.89
2017-10-27T04:10:34.407Z,97.46
2017-10-27T04:11:34.389Z,97.75
2017-10-27T04:12:34.405Z,97.36
2017-10-27T04:13:34.326Z,96.89
2017-10-27T04:14:34.313Z,96.89
2017-10-27T04:15:34.288Z,96.80
2017-10-27T04:16:34.272Z,97.17
2017-10-27T04:17:34.291Z,97.27
2017-10-27T04:18:34.243Z,96.80
2017-10-27T04:19:34.230Z,97.56
2017-10-27T04:20:34.198Z,97.75
2017-10-27T04:21:34.176Z,97.36
2017-10-27T04:22:34.205Z,97.36
2017-10-27T04:23:34.142Z,96.80
2017-10-27T04:24:34.119Z,97.75
2017-10-27T04:25:34.100Z,97.56
2017-10-27T04:26:34.087Z,97.75
2017-10-27T04:27:34.122Z,97.46
2017-10-27T04:28:34.072Z,96.80
2017-10-27T04:29:34.038Z,97.46
2017-10-27T04:30:34.022Z,97.17
2017-10-27T04:31:34.002Z,96.98
2017-10-27T04:32:34.007Z,97.17
2017-10-27T04:33:33.952Z,96.70
2017-10-27T04:34:33.941Z,97.08
2017-10-27T04:35:33.914Z,97.27
2017-10-27T04:36:33.895Z,97.56
2017-10-27T04:37:33.937Z,97.75
2017-10-27T04:38:33.872Z,97.36
2017-10-27T04:39:33.849Z,98.03
2017-10-27T04:40:33.819Z,96.60
2017-10-27T04:41:33.800Z,97.08
2017-10-27T04:42:33.840Z,96.98
2017-10-27T04:43:33.777Z,96.70
2017-10-27T04:44:33.748Z,97.17
2017-10-27T04:45:33.788Z,97.08
2017-10-27T04:46:33.873Z,96.70
2017-10-27T04:47:33.847Z,96.98
2017-10-27T04:48:33.733Z,96.89
2017-10-27T04:49:33.661Z,96.70
2017-10-27T04:50:33.720Z,97.36
2017-10-27T04:51:33.784Z,96.80
2017-10-27T04:52:33.659Z,97.17
2017-10-27T04:53:33.789Z,96.98
2017-10-27T04:54:33.651Z,96.98
2017-10-27T04:55:33.973Z,96.80
2017-10-27T04:56:33.523Z,97.08
2017-10-27T04:57:33.687Z,97.17
2017-10-27T04:58:33.611Z,96.80
2017-10-27T04:59:33.699Z,96.51
2017-10-27T05:00:33.526Z,96.60
2017-10-27T05:01:33.428Z,97.56
2017-10-27T05:02:33.412Z,96.80
2017-10-27T05:03:33.400Z,96.89
2017-10-27T05:04:33.370Z,96.60
2017-10-27T05:05:33.385Z,97.08
2017-10-27T05:06:33.334Z,96.80
2017-10-27T05:07:33.332Z,96.89
2017-10-27T05:08:33.348Z,97.08
2017-10-27T05:09:33.274Z,96.89
2017-10-27T05:10:33.303Z,96.98
2017-10-27T05:11:33.274Z,96.98
2017-10-27T05:12:33.268Z,96.51
2017-10-27T05:13:33.201Z,96.32
2017-10-27T05:14:33.200Z,96.98
2017-10-27T05:15:33.203Z,96.80
2017-10-27T05:16:33.145Z,96.70
2017-10-27T05:17:33.126Z,96.80
2017-10-27T05:18:33.143Z,96.60
2017-10-27T05:19:33.104Z,96.89
2017-10-27T05:20:33.153Z,96.32
2017-10-27T05:21:33.155Z,97.17
2017-10-27T05:22:33.206Z,96.89
2017-10-27T05:23:33.088Z,96.80
2017-10-27T05:24:32.996Z,96.98
2017-10-27T05:25:32.978Z,96.60
2017-10-27T05:26:42.740Z,96.89
2017-10-27T05:27:32.985Z,96.98
2017-10-27T05:28:32.926Z,96.70
2017-10-27T05:29:32.899Z,96.70
2017-10-27T05:30:32.886Z,96.60
2017-10-27T05:31:32.895Z,97.17
2017-10-27T05:32:32.888Z,96.89
2017-10-27T05:33:32.824Z,96.80
2017-10-27T05:34:32.804Z,96.60
2017-10-27T05:35:32.820Z,96.89
2017-10-27T05:36:32.775Z,96.60
2017-10-27T05:37:32.752Z,97.36
2017-10-27T05:38:32.785Z,96.89
2017-10-27T05:39:32.711Z,96.60
2017-10-27T05:40:32.698Z,96.70
2017-10-27T05:41:32.676Z,96.51
2017-10-27T05:42:32.658Z,96.60
2017-10-27T05:43:32.674Z,97.17
2017-10-27T05:44:32.624Z,97.17
2017-10-27T05:45:32.600Z,97.56
2017-10-27T05:46:32.583Z,97.08
2017-10-27T05:47:32.558Z,97.46
2017-10-27T05:48:32.596Z,96.22
2017-10-27T05:49:32.527Z,96.70
2017-10-27T05:50:32.508Z,97.17
2017-10-27T05:51:32.488Z,96.80
2017-10-27T05:52:32.467Z,96.51
2017-10-27T05:53:32.483Z,96.70
2017-10-27T05:54:32.432Z,97.08
2017-10-27T05:55:32.415Z,97.17
2017-10-27T05:56:32.390Z,97.13
2017-10-27T05:57:32.424Z,97.41
2017-10-27T05:58:32.656Z,97.36
2017-10-27T05:59:32.334Z,96.84
2017-10-27T06:00:32.312Z,96.46
2017-10-27T06:01:32.298Z,96.84
2017-10-27T06:02:32.312Z,96.60
2017-10-27T06:03:32.258Z,96.17
2017-10-27T06:04:32.242Z,96.75
2017-10-27T06:05:32.262Z,96.84
2017-10-27T06:06:32.205Z,97.31
2017-10-27T06:07:32.203Z,97.03
2017-10-27T06:08:32.163Z,96.36
2017-10-27T06:09:32.146Z,96.75
2017-10-27T06:10:32.161Z,96.75
2017-10-27T06:11:32.105Z,96.65
2017-10-27T06:12:32.126Z,96.75
2017-10-27T06:13:32.074Z,96.75
2017-10-27T06:14:32.057Z,96.65
2017-10-27T06:15:32.031Z,96.65
2017-10-27T06:16:32.077Z,96.94
2017-10-27T06:17:32.007Z,96.75
2017-10-27T06:18:31.976Z,96.84
2017-10-27T06:19:31.991Z,96.55
2017-10-27T06:20:31.939Z,96.84
2017-10-27T06:21:31.934Z,96.55
2017-10-27T06:22:31.938Z,96.94
2017-10-27T06:23:31.881Z,97.70
2017-10-27T06:24:31.896Z,96.55
2017-10-27T06:25:31.849Z,96.75
2017-10-27T06:26:31.863Z,96.98
2017-10-27T06:27:31.819Z,97.75
2017-10-27T06:28:31.785Z,96.98
2017-10-27T06:29:31.773Z,97.46
2017-10-27T06:30:31.799Z,96.22
2017-10-27T06:31:31.745Z,97.08
2017-10-27T06:32:31.718Z,96.80
2017-10-27T06:33:31.690Z,97.36
2017-10-27T06:34:31.673Z,97.36
2017-10-27T06:35:31.697Z,96.51
2017-10-27T06:36:31.635Z,96.98
2017-10-27T06:37:31.647Z,96.41
2017-10-27T06:38:31.606Z,97.46
2017-10-27T06:39:31.583Z,97.08
2017-10-27T06:40:31.557Z,96.41
2017-10-27T06:41:31.555Z,96.51
2017-10-27T06:42:31.575Z,96.98
2017-10-27T06:43:31.548Z,96.41
2017-10-27T06:44:31.486Z,96.70
2017-10-27T06:45:31.466Z,97.27
2017-10-27T06:46:31.449Z,96.80
2017-10-27T06:47:31.427Z,96.80
2017-10-27T06:48:31.432Z,96.89
2017-10-27T06:49:31.435Z,96.80
2017-10-27T06:50:31.408Z,97.46
2017-10-27T06:51:31.355Z,96.80
2017-10-27T06:52:31.330Z,97.27
2017-10-27T06:53:31.322Z,96.41
2017-10-27T06:54:31.339Z,96.41
2017-10-27T06:55:31.275Z,96.51
2017-10-27T06:56:31.302Z,96.60
2017-10-27T06:57:31.268Z,96.94
2017-10-27T06:58:31.236Z,97.46
2017-10-27T06:59:31.200Z,96.60
2017-10-27T07:00:31.178Z,97.08
2017-10-27T07:01:31.208Z,96.84
2017-10-27T07:02:31.150Z,96.84
2017-10-27T07:03:31.126Z,96.94
2017-10-27T07:04:31.114Z,96.84
2017-10-27T07:05:31.095Z,96.56
2017-10-27T07:06:31.112Z,97.61
2017-10-27T07:07:31.093Z,96.56
2017-10-27T07:08:40.803Z,98.08
2017-10-27T07:09:31.015Z,97.41
2017-10-27T07:10:30.996Z,97.13
2017-10-27T07:11:30.979Z,97.13
2017-10-27T07:12:30.995Z,97.51
2017-10-27T07:13:30.941Z,97.51
2017-10-27T07:14:30.963Z,97.46
2017-10-27T07:15:30.907Z,97.46
2017-10-27T07:16:30.887Z,97.47
2017-10-27T07:17:30.874Z,95.51
2017-10-27T07:18:30.900Z,96.46
2017-10-27T07:19:30.832Z,97.13
2017-10-27T07:20:30.813Z,95.98
2017-10-27T07:21:30.795Z,92.30
2017-10-27T07:22:30.789Z,90.73
2017-10-27T07:23:30.799Z,87.52
2017-10-27T07:24:30.743Z,85.55
2017-10-27T07:25:30.736Z,82.63
2017-10-27T07:26:30.716Z,80.04
2017-10-27T07:27:30.731Z,78.45
2017-10-27T07:28:30.684Z,75.90
2017-10-27T07:29:30.658Z,74.76
2017-10-27T07:30:30.645Z,73.55
2017-10-27T07:31:30.625Z,70.90
2017-10-27T07:32:30.662Z,69.36
2017-10-27T07:33:30.596Z,68.34
2017-10-27T07:34:30.579Z,72.55
2017-10-27T07:35:30.566Z,73.41
2017-10-27T07:36:30.548Z,74.24
2017-10-27T07:37:30.574Z,73.22
2017-10-27T07:38:30.525Z,70.57
2017-10-27T07:39:30.508Z,72.36
2017-10-27T07:40:30.508Z,74.24
2017-10-27T07:41:30.477Z,74.82
2017-10-27T07:42:30.508Z,75.83
2017-10-27T07:43:30.454Z,78.42
2017-10-27T07:44:40.336Z,76.96
2017-10-27T07:45:30.421Z,74.18
2017-10-27T07:46:30.413Z,74.66
2017-10-27T07:47:30.429Z,74.62
2017-10-27T07:48:30.382Z,72.45
2017-10-27T07:49:30.365Z,74.43
2017-10-27T07:50:30.359Z,79.05
2017-10-27T07:51:30.340Z,82.60
2017-10-27T07:52:30.361Z,86.29
2017-10-27T07:53:30.312Z,89.44
2017-10-27T07:54:30.342Z,89.78
2017-10-27T07:55:30.290Z,91.55
2017-10-27T07:56:30.271Z,91.93
2017-10-27T07:57:30.256Z,92.79
2017-10-27T07:58:30.245Z,93.26
2017-10-27T07:59:30.277Z,93.55
2017-10-27T08:00:30.216Z,93.84
2017-10-27T08:01:30.213Z,93.65
2017-10-27T08:02:30.201Z,92.30
2017-10-27T08:03:30.170Z,87.43
2017-10-27T08:04:30.204Z,81.20
2017-10-27T08:05:30.140Z,76.96
2017-10-27T08:06:30.133Z,72.68
2017-10-27T08:07:30.120Z,70.03
2017-10-27T08:08:30.107Z,68.53
2017-10-27T08:09:30.131Z,66.80
2017-10-27T08:10:30.113Z,65.75
2017-10-27T08:11:30.055Z,64.05
2017-10-27T08:12:30.059Z,63.89
2017-10-27T08:13:30.033Z,63.41
2017-10-27T08:14:30.024Z,62.93
2017-10-27T08:15:30.041Z,62.93
2017-10-27T08:16:29.994Z,59.89
2017-10-27T08:17:29.975Z,59.79
2017-10-27T08:18:29.963Z,59.99
2017-10-27T08:19:29.956Z,60.14
2017-10-27T08:20:29.982Z,59.22
2017-10-27T08:21:29.928Z,59.22
2017-10-27T08:22:29.912Z,59.69
2017-10-27T08:23:29.902Z,59.12
2017-10-27T08:24:29.890Z,60.72
2017-10-27T08:25:29.911Z,59.02
2017-10-27T08:26:29.866Z,57.80
2017-10-27T08:27:29.870Z,57.13
2017-10-27T08:28:29.840Z,57.90
2017-10-27T08:29:29.867Z,57.42
2017-10-27T08:30:29.825Z,56.55
2017-10-27T08:31:29.815Z,56.10
2017-10-27T08:32:29.800Z,56.55
2017-10-27T08:33:29.826Z,55.78
2017-10-27T08:34:29.784Z,56.52
2017-10-27T08:35:29.761Z,56.65
2017-10-27T08:36:29.820Z,55.11
2017-10-27T08:37:29.746Z,56.10
2017-10-27T08:38:29.733Z,55.20
2017-10-27T08:39:29.721Z,55.20
2017-10-27T08:40:29.705Z,55.11
2017-10-27T08:41:29.732Z,54.94
2017-10-27T08:42:29.690Z,55.01
2017-10-27T08:43:29.715Z,55.62
2017-10-27T08:44:29.662Z,55.23
2017-10-27T08:45:29.654Z,54.85
2017-10-27T08:46:29.645Z,53.33
2017-10-27T08:47:29.634Z,53.43
2017-10-27T08:48:29.664Z,53.98
2017-10-27T08:49:29.645Z,53.78
2017-10-27T08:50:29.602Z,54.36
2017-10-27T08:51:29.596Z,54.75
2017-10-27T08:52:29.583Z,54.08
2017-10-27T08:53:29.621Z,53.11
2017-10-27T08:54:29.558Z,53.40
2017-10-27T08:55:29.569Z,52.27
2017-10-27T08:56:29.536Z,52.40
2017-10-27T08:57:29.536Z,51.82
2017-10-27T08:58:29.552Z,50.95
2017-10-27T08:59:29.510Z,54.43
2017-10-27T09:00:29.544Z,57.93
2017-10-27T09:01:29.489Z,61.33
2017-10-27T09:02:29.478Z,63.67
2017-10-27T09:03:29.472Z,66.13
2017-10-27T09:04:29.452Z,68.68
2017-10-27T09:05:29.474Z,70.21
2017-10-27T09:06:29.432Z,66.83
2017-10-27T09:07:29.473Z,65.39
2017-10-27T09:08:29.413Z,62.04
2017-10-27T09:09:29.405Z,59.41
2017-10-27T09:10:29.392Z,56.74
2017-10-27T09:11:29.377Z,57.55
2017-10-27T09:12:29.409Z,59.12
2017-10-27T09:13:29.367Z,57.20
2017-10-27T09:14:29.357Z,56.74
2017-10-27T09:15:29.380Z,55.78
2017-10-27T09:16:29.332Z,55.20
2017-10-27T09:17:29.319Z,56.62
2017-10-27T09:18:29.300Z,58.45
2017-10-27T09:19:29.347Z,58.35
2017-10-27T09:20:29.288Z,56.71
2017-10-27T09:21:29.271Z,56.71
2017-10-27T09:22:29.265Z,56.62
2017-10-27T09:23:29.247Z,56.52
2017-10-27T09:24:29.275Z,57.52
2017-10-27T09:25:29.224Z,58.03
2017-10-27T09:26:29.249Z,58.25
2017-10-27T09:27:29.208Z,56.62
2017-10-27T09:28:29.193Z,56.91
2017-10-27T09:29:29.179Z,56.71
2017-10-27T09:30:29.169Z,57.00
2017-10-27T09:31:29.224Z,56.52
2017-10-27T09:32:29.148Z,57.17
2017-10-27T09:33:29.138Z,56.71
2017-10-27T09:34:29.128Z,56.52
2017-10-27T09:35:29.114Z,58.87
2017-10-27T09:36:29.141Z,59.28
2017-10-27T09:37:29.133Z,57.29
2017-10-27T09:38:29.117Z,56.14
2017-10-27T09:39:29.083Z,54.79
2017-10-27T09:40:29.060Z,54.79
2017-10-27T09:41:29.070Z,54.63
2017-10-27T09:42:29.083Z,55.46
2017-10-27T09:43:29.033Z,56.18
2017-10-27T09:44:29.017Z,57.93
2017-10-27T09:45:29.005Z,57.65
2017-10-27T09:46:29.027Z,56.91
2017-10-27T09:47:29.017Z,55.01
2017-10-27T09:48:28.971Z,54.46
2017-10-27T09:49:28.963Z,52.06
2017-10-27T09:50:28.959Z,51.50
2017-10-27T09:51:28.956Z,53.14
2017-10-27T09:52:28.963Z,52.49
2017-10-27T09:53:28.913Z,51.92
2017-10-27T09:54:28.904Z,51.62
2017-10-27T09:55:28.950Z,51.53
2017-10-27T09:56:28.884Z,50.76
2017-10-27T09:57:28.872Z,53.38
2017-10-27T09:58:28.868Z,56.66
2017-10-27T09:59:28.848Z,60.53
2017-10-27T10:00:28.890Z,63.48
2017-10-27T10:01:28.829Z,64.98
2017-10-27T10:02:28.824Z,65.17
2017-10-27T10:03:28.804Z,65.65
2017-10-27T10:04:28.793Z,67.28
2017-10-27T10:05:28.843Z,66.96
2017-10-27T10:06:28.803Z,67.63
2017-10-27T10:07:28.763Z,66.61
2017-10-27T10:08:28.748Z,64.82
2017-10-27T10:09:28.737Z,65.11
2017-10-27T10:10:28.726Z,65.36
2017-10-27T10:11:28.751Z,65.55
2017-10-27T10:12:28.737Z,68.81
2017-10-27T10:13:28.689Z,63.45
2017-10-27T10:14:28.699Z,61.11
2017-10-27T10:15:28.668Z,59.92
2017-10-27T10:16:28.654Z,61.98
2017-10-27T10:17:28.674Z,62.29
2017-10-27T10:18:28.632Z,60.69
2017-10-27T10:19:28.658Z,58.29
2017-10-27T10:20:28.615Z,60.47
2017-10-27T10:21:28.601Z,62.26
2017-10-27T10:22:29.414Z,63.67
2017-10-27T10:23:28.571Z,63.22
2017-10-27T10:24:28.590Z,63.48
2017-10-27T10:25:28.544Z,63.99
2017-10-27T10:26:28.535Z,64.09
2017-10-27T10:27:28.517Z,62.96
2017-10-27T10:28:28.550Z,63.60
2017-10-27T10:29:28.493Z,64.28
2017-10-27T10:30:28.484Z,64.25
2017-10-27T10:31:28.473Z,65.36
2017-10-27T10:32:28.463Z,68.11
2017-10-27T10:33:28.481Z,70.50
2017-10-27T10:34:28.436Z,71.37
2017-10-27T10:35:28.424Z,72.67
2017-10-27T10:36:28.414Z,73.44
2017-10-27T10:37:28.456Z,73.21
2017-10-27T10:38:28.385Z,74.30
2017-10-27T10:39:28.375Z,74.68
2017-10-27T10:40:28.358Z,70.89
2017-10-27T10:41:28.350Z,70.21
2017-10-27T10:42:28.375Z,69.83
2017-10-27T10:43:28.325Z,66.32
2017-10-27T10:44:28.307Z,67.72
2017-10-27T10:45:28.302Z,67.44
2017-10-27T10:46:28.283Z,67.18
2017-10-27T10:47:28.306Z,67.72
2017-10-27T10:48:28.259Z,70.76
2017-10-27T10:49:28.245Z,72.38
2017-10-27T10:50:28.230Z,72.25
2017-10-27T10:51:28.255Z,72.38
2017-10-27T10:52:28.207Z,68.68
2017-10-27T10:53:28.192Z,66.71
2017-10-27T10:54:28.186Z,65.49
2017-10-27T10:55:28.222Z,64.28
2017-10-27T10:56:28.150Z,63.79
2017-10-27T10:57:28.136Z,63.45
2017-10-27T10:58:28.150Z,63.16
2017-10-27T10:59:28.110Z,61.72
2017-10-27T11:00:28.130Z,61.14
2017-10-27T11:01:28.085Z,61.08
2017-10-27T11:02:28.068Z,59.83
2017-10-27T11:03:28.059Z,59.25
2017-10-27T11:04:28.083Z,59.09
2017-10-27T11:05:28.027Z,59.09
2017-10-27T11:06:28.055Z,59.80
2017-10-27T11:07:28.000Z,62.45
2017-10-27T11:08:27.988Z,61.43
2017-10-27T11:09:27.972Z,63.03
2017-10-27T11:10:28.009Z,62.65
2017-10-27T11:11:27.946Z,63.38
2017-10-27T11:12:27.935Z,65.36
2017-10-27T11:13:27.924Z,67.09
2017-10-27T11:14:27.908Z,68.81
2017-10-27T11:15:27.930Z,68.97
2017-10-27T11:16:27.882Z,67.25
2017-10-27T11:17:27.867Z,66.29
2017-10-27T11:18:27.858Z,67.54
2017-10-27T11:19:27.838Z,67.44
2017-10-27T11:20:27.858Z,66.86
2017-10-27T11:21:27.814Z,64.18
2017-10-27T11:22:27.804Z,64.37
2017-10-27T11:23:27.829Z,64.37
2017-10-27T11:24:27.767Z,64.25
2017-10-27T11:25:27.765Z,64.43
2017-10-27T11:26:27.742Z,63.80
2017-10-27T11:27:27.728Z,63.60
2017-10-27T11:28:27.765Z,63.70
2017-10-27T11:29:27.702Z,64.47
2017-10-27T11:30:27.687Z,63.32
2017-10-27T11:31:27.678Z,63.39
2017-10-27T11:32:27.668Z,64.53
2017-10-27T11:33:27.694Z,64.43
2017-10-27T11:34:27.633Z,65.11
2017-10-27T11:35:27.618Z,65.97
2017-10-27T11:36:27.623Z,65.88
2017-10-27T11:37:27.589Z,65.20
2017-10-27T11:38:27.623Z,63.76
2017-10-27T11:39:27.566Z,64.15
2017-10-27T11:40:27.549Z,65.20
2017-10-27T11:41:27.538Z,65.01
2017-10-27T11:42:27.558Z,66.54
2017-10-27T11:43:27.514Z,65.01
2017-10-27T11:44:27.530Z,64.43
2017-10-27T11:45:27.481Z,63.67
2017-10-27T11:46:27.467Z,65.20
2017-10-27T11:47:27.495Z,64.82
2017-10-27T11:48:27.438Z,65.20
2017-10-27T11:49:27.426Z,65.01
2017-10-27T11:50:27.414Z,64.15
2017-10-27T11:51:27.405Z,65.11
2017-10-27T11:52:27.420Z,65.84
2017-10-27T11:53:27.373Z,66.51
2017-10-27T11:54:27.359Z,66.03
2017-10-27T11:55:27.348Z,66.41
2017-10-27T11:56:27.361Z,67.41
2017-10-27T11:57:27.315Z,66.83
2017-10-27T11:58:27.301Z,66.25
2017-10-27T11:59:27.342Z,66.16
2017-10-27T12:00:27.274Z,66.35
2017-10-27T12:01:27.259Z,64.72
2017-10-27T12:02:27.279Z,65.78
2017-10-27T12:03:27.262Z,65.68
2017-10-27T12:04:27.220Z,66.64
2017-10-27T12:05:27.200Z,65.30
2017-10-27T12:06:27.198Z,64.25
2017-10-27T12:07:27.180Z,65.30
2017-10-27T12:08:27.198Z,65.68
2017-10-27T12:09:27.161Z,64.28
2017-10-27T12:10:27.193Z,64.92
2017-10-27T12:11:27.112Z,64.28
2017-10-27T12:12:27.114Z,65.14
2017-10-27T12:13:27.086Z,64.34
2017-10-27T12:14:27.075Z,65.39
2017-10-27T12:15:27.097Z,66.09
2017-10-27T12:16:27.045Z,64.18
2017-10-27T12:17:27.040Z,64.18
2017-10-27T12:18:27.024Z,65.30
2017-10-27T12:19:27.040Z,64.43
2017-10-27T12:20:27.052Z,64.25
2017-10-27T12:21:27.021Z,64.92
2017-10-27T12:22:26.964Z,64.82
2017-10-27T12:23:26.949Z,66.16
2017-10-27T12:24:26.930Z,65.78
2017-10-27T12:25:26.927Z,66.19
2017-10-27T12:26:26.953Z,64.18
2017-10-27T12:27:26.894Z,65.01
2017-10-27T12:28:26.879Z,65.01
2017-10-27T12:29:26.867Z,65.23
2017-10-27T12:30:26.868Z,66.58
2017-10-27T12:31:26.904Z,66.86
2017-10-27T12:32:26.859Z,65.52
2017-10-27T12:33:26.831Z,65.42
2017-10-27T12:34:26.792Z,65.81
2017-10-27T12:35:26.824Z,63.67
2017-10-27T12:36:26.770Z,64.15
2017-10-27T12:37:26.772Z,64.05
2017-10-27T12:38:26.745Z,64.98
2017-10-27T12:39:26.740Z,65.74
2017-10-27T12:40:26.791Z,65.65
2017-10-27T12:41:26.705Z,66.41
2017-10-27T12:42:26.687Z,67.66
2017-10-27T12:43:26.676Z,68.13
2017-10-27T12:44:26.660Z,67.47
2017-10-27T12:45:26.688Z,68.04
2017-10-27T12:46:26.628Z,68.39
2017-10-27T12:47:26.614Z,67.76
2017-10-27T12:48:26.627Z,68.52
2017-10-27T12:49:26.582Z,69.38
2017-10-27T12:50:26.577Z,69.35
2017-10-27T12:51:26.557Z,69.54
2017-10-27T12:52:26.537Z,70.68